Terminal Aerodrome Forecast
Issued by NWS

Home | Current Version | Previous Version | Text Only | Print | Product List | Glossary On
Versions: 1 2 3 4 5 6 7 8 9 10 11 12 13 14 15 16 17 18 19 20 21 22
000
FTUS41 KBGM 031123
TAFELM
TAF
KELM 031123Z 0312/0412 00000KT 1SM BR VV002
     FM031230 00000KT 2SM BR SCT005
     FM031400 36005KT P6SM SCT045
     FM040400 05002KT 5SM BR SCT045 OVC120
     FM040500 04002KT 2SM BR BKN045
     FM040700 03002KT 1/2SM FG OVC003=

USA.gov is the U.S. government's official web portal to all federal, state and local government web resources and services.